West Redding, Connecticut
Current Conditions -  °F | °C
As of 5:53 AM on Wednesday 26 Nov 2014 (Local Time) from KDXR Reporting Station
Overcast Overcast  
Wind Chill: 35°   Ceiling: 8000
Heat Index: 41°   Visibility: 10mi
Dew Point: 28°   Wind: 10mph
Humidity: 60%   Direction: 20°NNE
Pressure: 30.15"   Gusts: NA
Location:  41.3054°N, 73.393°W
Report Text: KDXR 261053Z AUTO 02009KT 10SM FEW060 OVC080 05/M02 A3015 RMK AO2 RAB33E43 SLP211 P0000 T00501022
Loading
Personal Weather Stations






























Interactive Weather Map New forecast layout! Learn more

10-Day Weather Forecast

Advertisements
Track Severe Weather on mobile